PWSweather.com
Personal Weather Stations
Station Observations
KCOFORTM15
Fort Morgan, CO

Fort Morgan, CO

Lat: 40.26, Lon: -103.784

Elevation: 4724

Station Type:

High Low Average
Temperature 88.0°F31.1°C 64.6°F18.1°C 73.8°F23.2°C
Dew Point 63.7°F17.6°C 58.5°F14.7°C 61.0°F16.1°C
Winds 10.3 mph 16.6 kmh Calm Calm 3.0 mph SE4.8 kmh SE
Wind Gusts 12.5 mph20.1 kmh -- 4.0 mph6.4 kmh
Humidity 90% 39% 67%
Pressure 30.10 in1019.3 mb 29.99 in1015.6 mb -
Precipitation 0.00 in0.0 mm - -
Hour Temp Dew Point Humidity Winds Wind Gusts Pressure Precip Precip Rate Daily Precip Total
12:04 AM 68.7°F20.4°C 62.1°F16.7°C 79% 1.1 mph SW1.8 kmh SW 1.1 mph1.8 kmh 30.08 in1018.6 mb 0.00 in0.0 mm 0.00 in0.0 mm 0.00 in0.0 mm
12:09 AM 68.4°F20.2°C 61.7°F16.5°C 79% 0.4 mph SSW0.6 kmh SSW 1.1 mph1.8 kmh 30.08 in1018.6 mb 0.00 in0.0 mm 0.00 in0.0 mm 0.00 in0.0 mm
12:14 AM 68.0°F20.0°C 61.7°F16.5°C 80% Calm Calm -- 30.07 in1018.3 mb 0.00 in0.0 mm 0.00 in0.0 mm 0.00 in0.0 mm
12:19 AM 68.0°F20.0°C 61.7°F16.5°C 80% Calm Calm -- 30.07 in1018.3 mb 0.00 in0.0 mm 0.00 in0.0 mm 0.00 in0.0 mm
12:24 AM 67.8°F19.9°C 61.5°F16.4°C 80% Calm Calm -- 30.07 in1018.3 mb 0.00 in0.0 mm 0.00 in0.0 mm 0.00 in0.0 mm
12:29 AM 67.6°F19.8°C 61.5°F16.4°C 81% 0.7 mph S1.1 kmh S 1.1 mph1.8 kmh 30.07 in1018.3 mb 0.00 in0.0 mm 0.00 in0.0 mm 0.00 in0.0 mm
12:34 AM 67.3°F19.6°C 61.5°F16.4°C 82% Calm Calm -- 30.07 in1018.3 mb 0.00 in0.0 mm 0.00 in0.0 mm 0.00 in0.0 mm
12:39 AM 66.7°F19.3°C 61.5°F16.4°C 83% 1.3 mph SSW2.1 kmh SSW 2.2 mph3.5 kmh 30.06 in1017.9 mb 0.00 in0.0 mm 0.00 in0.0 mm 0.00 in0.0 mm
12:44 AM 66.4°F19.1°C 61.2°F16.2°C 83% Calm Calm -- 30.07 in1018.3 mb 0.00 in0.0 mm 0.00 in0.0 mm 0.00 in0.0 mm
12:49 AM 66.4°F19.1°C 61.3°F16.3°C 84% Calm Calm -- 30.07 in1018.3 mb 0.00 in0.0 mm 0.00 in0.0 mm 0.00 in0.0 mm
12:54 AM 66.2°F19.0°C 61.2°F16.2°C 84% Calm Calm -- 30.08 in1018.6 mb 0.00 in0.0 mm 0.00 in0.0 mm 0.00 in0.0 mm
12:59 AM 66.2°F19.0°C 61.2°F16.2°C 84% Calm Calm -- 30.07 in1018.3 mb 0.00 in0.0 mm 0.00 in0.0 mm 0.00 in0.0 mm
01:04 AM 66.2°F19.0°C 61.2°F16.2°C 84% Calm Calm -- 30.05 in1017.6 mb 0.00 in0.0 mm 0.00 in0.0 mm 0.00 in0.0 mm
01:09 AM 66.2°F19.0°C 61.2°F16.2°C 84% Calm Calm -- 30.06 in1017.9 mb 0.00 in0.0 mm 0.00 in0.0 mm 0.00 in0.0 mm
01:14 AM 66.2°F19.0°C 61.2°F16.2°C 84% Calm Calm -- 30.07 in1018.3 mb 0.00 in0.0 mm 0.00 in0.0 mm 0.00 in0.0 mm
01:19 AM 66.2°F19.0°C 61.2°F16.2°C 84% 0.9 mph SSW1.4 kmh SSW 2.2 mph3.5 kmh 30.07 in1018.3 mb 0.00 in0.0 mm 0.00 in0.0 mm 0.00 in0.0 mm
01:24 AM 66.6°F19.2°C 61.5°F16.4°C 84% 0.2 mph S0.3 kmh S 1.1 mph1.8 kmh 30.06 in1017.9 mb 0.00 in0.0 mm 0.00 in0.0 mm 0.00 in0.0 mm
01:29 AM 66.6°F19.2°C 61.5°F16.4°C 84% 0.2 mph SE0.3 kmh SE 1.1 mph1.8 kmh 30.07 in1018.3 mb 0.00 in0.0 mm 0.00 in0.0 mm 0.00 in0.0 mm
01:34 AM 66.7°F19.3°C 61.5°F16.4°C 83% 0.2 mph S0.3 kmh S 1.1 mph1.8 kmh 30.07 in1018.3 mb 0.00 in0.0 mm 0.00 in0.0 mm 0.00 in0.0 mm
01:39 AM 66.7°F19.3°C 61.5°F16.4°C 83% Calm Calm -- 30.06 in1017.9 mb 0.00 in0.0 mm 0.00 in0.0 mm 0.00 in0.0 mm
01:44 AM 66.4°F19.1°C 61.3°F16.3°C 84% 0.9 mph SE1.4 kmh SE 2.2 mph3.5 kmh 30.07 in1018.3 mb 0.00 in0.0 mm 0.00 in0.0 mm 0.00 in0.0 mm
01:49 AM 66.0°F18.9°C 61.0°F16.1°C 84% 0.2 mph SSW0.3 kmh SSW 1.1 mph1.8 kmh 30.07 in1018.3 mb 0.00 in0.0 mm 0.00 in0.0 mm 0.00 in0.0 mm
01:54 AM 65.7°F18.7°C 61.0°F16.1°C 85% 1.3 mph SSW2.1 kmh SSW 2.2 mph3.5 kmh 30.06 in1017.9 mb 0.00 in0.0 mm 0.00 in0.0 mm 0.00 in0.0 mm
01:59 AM 65.3°F18.5°C 61.0°F16.1°C 86% 0.2 mph SW0.3 kmh SW 1.1 mph1.8 kmh 30.06 in1017.9 mb 0.00 in0.0 mm 0.00 in0.0 mm 0.00 in0.0 mm
02:04 AM 65.1°F18.4°C 61.2°F16.2°C 87% 1.1 mph S1.8 kmh S 2.2 mph3.5 kmh 30.07 in1018.3 mb 0.00 in0.0 mm 0.00 in0.0 mm 0.00 in0.0 mm
02:09 AM 64.9°F18.3°C 61.0°F16.1°C 87% 0.7 mph S1.1 kmh S 1.1 mph1.8 kmh 30.06 in1017.9 mb 0.00 in0.0 mm 0.00 in0.0 mm 0.00 in0.0 mm
02:14 AM 64.8°F18.2°C 61.0°F16.1°C 88% 0.4 mph SSW0.6 kmh SSW 1.1 mph1.8 kmh 30.06 in1017.9 mb 0.00 in0.0 mm 0.00 in0.0 mm 0.00 in0.0 mm
02:19 AM 64.8°F18.2°C 61.0°F16.1°C 88% 1.1 mph ESE1.8 kmh ESE 2.2 mph3.5 kmh 30.06 in1017.9 mb 0.00 in0.0 mm 0.00 in0.0 mm 0.00 in0.0 mm
02:24 AM 64.8°F18.2°C 61.0°F16.1°C 88% 0.7 mph SSW1.1 kmh SSW 1.1 mph1.8 kmh 30.07 in1018.3 mb 0.00 in0.0 mm 0.00 in0.0 mm 0.00 in0.0 mm
02:29 AM 64.8°F18.2°C 61.3°F16.3°C 89% 1.6 mph SSE2.6 kmh SSE 2.2 mph3.5 kmh 30.06 in1017.9 mb 0.00 in0.0 mm 0.00 in0.0 mm 0.00 in0.0 mm
02:34 AM 64.6°F18.1°C 61.2°F16.2°C 89% 0.7 mph WSW1.1 kmh WSW 1.1 mph1.8 kmh 30.06 in1017.9 mb 0.00 in0.0 mm 0.00 in0.0 mm 0.00 in0.0 mm
02:39 AM 64.6°F18.1°C 61.2°F16.2°C 89% 0.7 mph S1.1 kmh S 1.1 mph1.8 kmh 30.07 in1018.3 mb 0.00 in0.0 mm 0.00 in0.0 mm 0.00 in0.0 mm
02:44 AM 64.6°F18.1°C 61.5°F16.4°C 90% 0.7 mph S1.1 kmh S 1.1 mph1.8 kmh 30.06 in1017.9 mb 0.00 in0.0 mm 0.00 in0.0 mm 0.00 in0.0 mm
02:49 AM 64.6°F18.1°C 61.2°F16.2°C 89% 2.2 mph SSW3.5 kmh SSW 3.4 mph5.5 kmh 30.06 in1017.9 mb 0.00 in0.0 mm 0.00 in0.0 mm 0.00 in0.0 mm
02:54 AM 64.6°F18.1°C 61.2°F16.2°C 89% 1.1 mph SE1.8 kmh SE 2.2 mph3.5 kmh 30.06 in1017.9 mb 0.00 in0.0 mm 0.00 in0.0 mm 0.00 in0.0 mm
02:59 AM 64.8°F18.2°C 61.3°F16.3°C 89% 0.7 mph SE1.1 kmh SE 1.1 mph1.8 kmh 30.06 in1017.9 mb 0.00 in0.0 mm 0.00 in0.0 mm 0.00 in0.0 mm
03:04 AM 64.8°F18.2°C 61.3°F16.3°C 89% 1.1 mph SE1.8 kmh SE 2.2 mph3.5 kmh 30.06 in1017.9 mb 0.00 in0.0 mm 0.00 in0.0 mm 0.00 in0.0 mm
03:09 AM 64.8°F18.2°C 61.3°F16.3°C 89% 1.8 mph SSW2.9 kmh SSW 3.4 mph5.5 kmh 30.06 in1017.9 mb 0.00 in0.0 mm 0.00 in0.0 mm 0.00 in0.0 mm
03:14 AM 64.8°F18.2°C 61.0°F16.1°C 88% 0.7 mph SE1.1 kmh SE 1.1 mph1.8 kmh 30.06 in1017.9 mb 0.00 in0.0 mm 0.00 in0.0 mm 0.00 in0.0 mm
03:19 AM 64.8°F18.2°C 61.0°F16.1°C 88% 1.1 mph SSE1.8 kmh SSE 2.2 mph3.5 kmh 30.05 in1017.6 mb 0.00 in0.0 mm 0.00 in0.0 mm 0.00 in0.0 mm
03:24 AM 64.8°F18.2°C 61.3°F16.3°C 89% 1.1 mph S1.8 kmh S 2.2 mph3.5 kmh 30.06 in1017.9 mb 0.00 in0.0 mm 0.00 in0.0 mm 0.00 in0.0 mm
03:29 AM 64.8°F18.2°C 61.3°F16.3°C 89% 2.5 mph S4.0 kmh S 3.4 mph5.5 kmh 30.06 in1017.9 mb 0.00 in0.0 mm 0.00 in0.0 mm 0.00 in0.0 mm
03:34 AM 64.8°F18.2°C 61.0°F16.1°C 88% 3.4 mph SE5.5 kmh SE 5.8 mph9.3 kmh 30.05 in1017.6 mb 0.00 in0.0 mm 0.00 in0.0 mm 0.00 in0.0 mm
03:39 AM 64.9°F18.3°C 61.5°F16.4°C 89% 0.7 mph S1.1 kmh S 1.1 mph1.8 kmh 30.06 in1017.9 mb 0.00 in0.0 mm 0.00 in0.0 mm 0.00 in0.0 mm
03:44 AM 64.8°F18.2°C 61.3°F16.3°C 89% 0.9 mph SW1.4 kmh SW 1.1 mph1.8 kmh 30.05 in1017.6 mb 0.00 in0.0 mm 0.00 in0.0 mm 0.00 in0.0 mm
03:49 AM 64.8°F18.2°C 61.3°F16.3°C 89% 0.7 mph SW1.1 kmh SW 1.1 mph1.8 kmh 30.06 in1017.9 mb 0.00 in0.0 mm 0.00 in0.0 mm 0.00 in0.0 mm
03:54 AM 64.9°F18.3°C 61.5°F16.4°C 89% Calm Calm -- 30.06 in1017.9 mb 0.00 in0.0 mm 0.00 in0.0 mm 0.00 in0.0 mm
03:59 AM 64.9°F18.3°C 61.5°F16.4°C 89% 1.3 mph S2.1 kmh S 2.2 mph3.5 kmh 30.06 in1017.9 mb 0.00 in0.0 mm 0.00 in0.0 mm 0.00 in0.0 mm
04:04 AM 64.9°F18.3°C 61.5°F16.4°C 89% 1.8 mph SSW2.9 kmh SSW 2.2 mph3.5 kmh 30.06 in1017.9 mb 0.00 in0.0 mm 0.00 in0.0 mm 0.00 in0.0 mm
04:09 AM 64.9°F18.3°C 61.5°F16.4°C 89% 0.2 mph SSW0.3 kmh SSW 1.1 mph1.8 kmh 30.05 in1017.6 mb 0.00 in0.0 mm 0.00 in0.0 mm 0.00 in0.0 mm
04:14 AM 64.8°F18.2°C 61.3°F16.3°C 89% 0.4 mph S0.6 kmh S 1.1 mph1.8 kmh 30.06 in1017.9 mb 0.00 in0.0 mm 0.00 in0.0 mm 0.00 in0.0 mm
04:19 AM 64.8°F18.2°C 61.3°F16.3°C 89% 0.9 mph SSE1.4 kmh SSE 3.4 mph5.5 kmh 30.06 in1017.9 mb 0.00 in0.0 mm 0.00 in0.0 mm 0.00 in0.0 mm
04:24 AM 64.8°F18.2°C 61.3°F16.3°C 89% 2.0 mph ESE3.2 kmh ESE 3.4 mph5.5 kmh 30.06 in1017.9 mb 0.00 in0.0 mm 0.00 in0.0 mm 0.00 in0.0 mm
04:29 AM 64.9°F18.3°C 61.5°F16.4°C 89% 0.2 mph SSW0.3 kmh SSW 1.1 mph1.8 kmh 30.06 in1017.9 mb 0.00 in0.0 mm 0.00 in0.0 mm 0.00 in0.0 mm
04:34 AM 64.8°F18.2°C 61.3°F16.3°C 89% Calm Calm -- 30.05 in1017.6 mb 0.00 in0.0 mm 0.00 in0.0 mm 0.00 in0.0 mm
04:39 AM 64.8°F18.2°C 61.3°F16.3°C 89% 1.8 mph SE2.9 kmh SE 2.2 mph3.5 kmh 30.06 in1017.9 mb 0.00 in0.0 mm 0.00 in0.0 mm 0.00 in0.0 mm
04:44 AM 64.8°F18.2°C 61.3°F16.3°C 89% 2.2 mph SSE3.5 kmh SSE 4.5 mph7.2 kmh 30.07 in1018.3 mb 0.00 in0.0 mm 0.00 in0.0 mm 0.00 in0.0 mm
04:49 AM 64.8°F18.2°C 61.3°F16.3°C 89% 2.9 mph SE4.7 kmh SE 3.4 mph5.5 kmh 30.06 in1017.9 mb 0.00 in0.0 mm 0.00 in0.0 mm 0.00 in0.0 mm
04:54 AM 64.8°F18.2°C 61.3°F16.3°C 89% 2.0 mph SE3.2 kmh SE 2.2 mph3.5 kmh 30.06 in1017.9 mb 0.00 in0.0 mm 0.00 in0.0 mm 0.00 in0.0 mm
04:59 AM 64.8°F18.2°C 61.3°F16.3°C 89% 0.4 mph S0.6 kmh S 1.1 mph1.8 kmh 30.06 in1017.9 mb 0.00 in0.0 mm 0.00 in0.0 mm 0.00 in0.0 mm
05:04 AM 64.6°F18.1°C 61.2°F16.2°C 89% Calm Calm -- 30.06 in1017.9 mb 0.00 in0.0 mm 0.00 in0.0 mm 0.00 in0.0 mm
05:09 AM 64.6°F18.1°C 61.2°F16.2°C 89% 1.6 mph SE2.6 kmh SE 2.2 mph3.5 kmh 30.07 in1018.3 mb 0.00 in0.0 mm 0.00 in0.0 mm 0.00 in0.0 mm
05:14 AM 64.8°F18.2°C 61.3°F16.3°C 89% Calm Calm -- 30.06 in1017.9 mb 0.00 in0.0 mm 0.00 in0.0 mm 0.00 in0.0 mm
05:19 AM 64.9°F18.3°C 61.5°F16.4°C 89% 2.9 mph SE4.7 kmh SE 3.4 mph5.5 kmh 30.07 in1018.3 mb 0.00 in0.0 mm 0.00 in0.0 mm 0.00 in0.0 mm
05:24 AM 65.1°F18.4°C 61.7°F16.5°C 89% Calm Calm -- 30.07 in1018.3 mb 0.00 in0.0 mm 0.00 in0.0 mm 0.00 in0.0 mm
05:29 AM 65.3°F18.5°C 61.5°F16.4°C 88% 2.9 mph SSE4.7 kmh SSE 4.5 mph7.2 kmh 30.07 in1018.3 mb 0.00 in0.0 mm 0.00 in0.0 mm 0.00 in0.0 mm
05:34 AM 65.5°F18.6°C 61.7°F16.5°C 88% 1.1 mph SW1.8 kmh SW 1.1 mph1.8 kmh 30.07 in1018.3 mb 0.00 in0.0 mm 0.00 in0.0 mm 0.00 in0.0 mm
05:39 AM 65.5°F18.6°C 61.7°F16.5°C 88% 0.2 mph S0.3 kmh S 1.1 mph1.8 kmh 30.07 in1018.3 mb 0.00 in0.0 mm 0.00 in0.0 mm 0.00 in0.0 mm
05:44 AM 65.5°F18.6°C 61.7°F16.5°C 88% 0.4 mph SSW0.6 kmh SSW 1.1 mph1.8 kmh 30.07 in1018.3 mb 0.00 in0.0 mm 0.00 in0.0 mm 0.00 in0.0 mm
05:49 AM 65.3°F18.5°C 61.5°F16.4°C 88% 0.9 mph SSE1.4 kmh SSE 2.2 mph3.5 kmh 30.07 in1018.3 mb 0.00 in0.0 mm 0.00 in0.0 mm 0.00 in0.0 mm
05:54 AM 65.5°F18.6°C 61.7°F16.5°C 88% 0.2 mph SSW0.3 kmh SSW 1.1 mph1.8 kmh 30.07 in1018.3 mb 0.00 in0.0 mm 0.00 in0.0 mm 0.00 in0.0 mm
05:59 AM 65.5°F18.6°C 61.7°F16.5°C 88% 1.6 mph SSW2.6 kmh SSW 2.2 mph3.5 kmh 30.07 in1018.3 mb 0.00 in0.0 mm 0.00 in0.0 mm 0.00 in0.0 mm
06:04 AM 65.3°F18.5°C 61.5°F16.4°C 88% 0.7 mph SSW1.1 kmh SSW 1.1 mph1.8 kmh 30.07 in1018.3 mb 0.00 in0.0 mm 0.00 in0.0 mm 0.00 in0.0 mm
06:09 AM 65.3°F18.5°C 61.9°F16.6°C 89% 1.3 mph SSE2.1 kmh SSE 2.2 mph3.5 kmh 30.07 in1018.3 mb 0.00 in0.0 mm 0.00 in0.0 mm 0.00 in0.0 mm
06:14 AM 65.3°F18.5°C 61.9°F16.6°C 89% Calm Calm -- 30.07 in1018.3 mb 0.00 in0.0 mm 0.00 in0.0 mm 0.00 in0.0 mm
06:19 AM 65.3°F18.5°C 61.5°F16.4°C 88% 0.7 mph S1.1 kmh S 1.1 mph1.8 kmh 30.07 in1018.3 mb 0.00 in0.0 mm 0.00 in0.0 mm 0.00 in0.0 mm
06:24 AM 65.5°F18.6°C 61.7°F16.5°C 88% 0.9 mph SE1.4 kmh SE 2.2 mph3.5 kmh 30.07 in1018.3 mb 0.00 in0.0 mm 0.00 in0.0 mm 0.00 in0.0 mm
06:29 AM 65.7°F18.7°C 61.9°F16.6°C 88% 1.3 mph SSW2.1 kmh SSW 2.2 mph3.5 kmh 30.07 in1018.3 mb 0.00 in0.0 mm 0.00 in0.0 mm 0.00 in0.0 mm
06:34 AM 65.7°F18.7°C 61.9°F16.6°C 88% Calm Calm -- 30.08 in1018.6 mb 0.00 in0.0 mm 0.00 in0.0 mm 0.00 in0.0 mm
06:39 AM 65.7°F18.7°C 61.9°F16.6°C 88% Calm Calm -- 30.07 in1018.3 mb 0.00 in0.0 mm 0.00 in0.0 mm 0.00 in0.0 mm
06:44 AM 65.8°F18.8°C 62.1°F16.7°C 88% 0.7 mph SSE1.1 kmh SSE 1.1 mph1.8 kmh 30.07 in1018.3 mb 0.00 in0.0 mm 0.00 in0.0 mm 0.00 in0.0 mm
06:49 AM 66.0°F18.9°C 62.2°F16.8°C 88% Calm Calm -- 30.08 in1018.6 mb 0.00 in0.0 mm 0.00 in0.0 mm 0.00 in0.0 mm
06:54 AM 66.0°F18.9°C 62.2°F16.8°C 88% 0.9 mph S1.4 kmh S 2.2 mph3.5 kmh 30.08 in1018.6 mb 0.00 in0.0 mm 0.00 in0.0 mm 0.00 in0.0 mm
06:59 AM 66.2°F19.0°C 62.2°F16.8°C 87% Calm Calm -- 30.08 in1018.6 mb 0.00 in0.0 mm 0.00 in0.0 mm 0.00 in0.0 mm
07:04 AM 66.4°F19.1°C 62.4°F16.9°C 87% Calm Calm -- 30.09 in1019.0 mb 0.00 in0.0 mm 0.00 in0.0 mm 0.00 in0.0 mm
07:09 AM 66.6°F19.2°C 62.6°F17.0°C 87% 0.2 mph S0.3 kmh S 1.1 mph1.8 kmh 30.09 in1019.0 mb 0.00 in0.0 mm 0.00 in0.0 mm 0.00 in0.0 mm
07:14 AM 66.6°F19.2°C 62.2°F16.8°C 86% 0.2 mph S0.3 kmh S 1.1 mph1.8 kmh 30.09 in1019.0 mb 0.00 in0.0 mm 0.00 in0.0 mm 0.00 in0.0 mm
07:19 AM 66.6°F19.2°C 62.2°F16.8°C 86% 1.8 mph SSE2.9 kmh SSE 3.4 mph5.5 kmh 30.09 in1019.0 mb 0.00 in0.0 mm 0.00 in0.0 mm 0.00 in0.0 mm
07:24 AM 66.7°F19.3°C 62.4°F16.9°C 86% 0.7 mph SSE1.1 kmh SSE 2.2 mph3.5 kmh 30.09 in1019.0 mb 0.00 in0.0 mm 0.00 in0.0 mm 0.00 in0.0 mm
07:29 AM 66.9°F19.4°C 62.2°F16.8°C 85% 3.6 mph E5.8 kmh E 5.8 mph9.3 kmh 30.09 in1019.0 mb 0.00 in0.0 mm 0.00 in0.0 mm 0.00 in0.0 mm
07:34 AM 66.9°F19.4°C 62.2°F16.8°C 85% 1.1 mph SSE1.8 kmh SSE 1.1 mph1.8 kmh 30.09 in1019.0 mb 0.00 in0.0 mm 0.00 in0.0 mm 0.00 in0.0 mm
07:39 AM 67.1°F19.5°C 62.4°F16.9°C 85% 0.2 mph S0.3 kmh S 1.1 mph1.8 kmh 30.10 in1019.3 mb 0.00 in0.0 mm 0.00 in0.0 mm 0.00 in0.0 mm
07:44 AM 67.3°F19.6°C 62.6°F17.0°C 85% 1.8 mph E2.9 kmh E 3.4 mph5.5 kmh 30.10 in1019.3 mb 0.00 in0.0 mm 0.00 in0.0 mm 0.00 in0.0 mm
07:49 AM 67.3°F19.6°C 62.6°F17.0°C 85% Calm Calm -- 30.10 in1019.3 mb 0.00 in0.0 mm 0.00 in0.0 mm 0.00 in0.0 mm
07:54 AM 67.8°F19.9°C 62.4°F16.9°C 83% 2.5 mph SW4.0 kmh SW 3.4 mph5.5 kmh 30.10 in1019.3 mb 0.00 in0.0 mm 0.00 in0.0 mm 0.00 in0.0 mm
07:59 AM 67.8°F19.9°C 62.1°F16.7°C 82% 2.0 mph SE3.2 kmh SE 4.5 mph7.2 kmh 30.10 in1019.3 mb 0.00 in0.0 mm 0.00 in0.0 mm 0.00 in0.0 mm
08:04 AM 68.2°F20.1°C 62.4°F16.9°C 82% 1.6 mph S2.6 kmh S 3.4 mph5.5 kmh 30.10 in1019.3 mb 0.00 in0.0 mm 0.00 in0.0 mm 0.00 in0.0 mm
08:09 AM 68.4°F20.2°C 62.2°F16.8°C 81% 2.9 mph ESE4.7 kmh ESE 4.5 mph7.2 kmh 30.09 in1019.0 mb 0.00 in0.0 mm 0.00 in0.0 mm 0.00 in0.0 mm
08:14 AM 68.4°F20.2°C 62.2°F16.8°C 81% 1.8 mph SE2.9 kmh SE 3.4 mph5.5 kmh 30.09 in1019.0 mb 0.00 in0.0 mm 0.00 in0.0 mm 0.00 in0.0 mm
08:19 AM 68.5°F20.3°C 62.1°F16.7°C 80% 1.8 mph S2.9 kmh S 4.5 mph7.2 kmh 30.09 in1019.0 mb 0.00 in0.0 mm 0.00 in0.0 mm 0.00 in0.0 mm
08:24 AM 68.9°F20.5°C 62.4°F16.9°C 80% 2.2 mph SE3.5 kmh SE 4.5 mph7.2 kmh 30.09 in1019.0 mb 0.00 in0.0 mm 0.00 in0.0 mm 0.00 in0.0 mm
08:29 AM 69.3°F20.7°C 62.6°F17.0°C 79% 0.9 mph SSE1.4 kmh SSE 1.1 mph1.8 kmh 30.09 in1019.0 mb 0.00 in0.0 mm 0.00 in0.0 mm 0.00 in0.0 mm
08:34 AM 69.8°F21.0°C 62.6°F17.0°C 78% 1.6 mph SSE2.6 kmh SSE 2.2 mph3.5 kmh 30.09 in1019.0 mb 0.00 in0.0 mm 0.00 in0.0 mm 0.00 in0.0 mm
08:39 AM 70.3°F21.3°C 62.8°F17.1°C 77% 3.1 mph ESE5.0 kmh ESE 4.5 mph7.2 kmh 30.09 in1019.0 mb 0.00 in0.0 mm 0.00 in0.0 mm 0.00 in0.0 mm
08:44 AM 70.2°F21.2°C 62.6°F17.0°C 77% 2.2 mph SE3.5 kmh SE 3.4 mph5.5 kmh 30.09 in1019.0 mb 0.00 in0.0 mm 0.00 in0.0 mm 0.00 in0.0 mm
08:49 AM 70.3°F21.3°C 62.8°F17.1°C 77% 5.8 mph ESE9.3 kmh ESE 8.1 mph13.0 kmh 30.09 in1019.0 mb 0.00 in0.0 mm 0.00 in0.0 mm 0.00 in0.0 mm
08:54 AM 70.3°F21.3°C 62.4°F16.9°C 76% 1.3 mph SE2.1 kmh SE 2.2 mph3.5 kmh 30.09 in1019.0 mb 0.00 in0.0 mm 0.00 in0.0 mm 0.00 in0.0 mm
08:59 AM 70.7°F21.5°C 62.8°F17.1°C 76% 4.5 mph SE7.2 kmh SE 5.8 mph9.3 kmh 30.09 in1019.0 mb 0.00 in0.0 mm 0.00 in0.0 mm 0.00 in0.0 mm
09:04 AM 70.9°F21.6°C 63.0°F17.2°C 76% 1.8 mph SE2.9 kmh SE 2.2 mph3.5 kmh 30.09 in1019.0 mb 0.00 in0.0 mm 0.00 in0.0 mm 0.00 in0.0 mm
09:09 AM 71.2°F21.8°C 63.0°F17.2°C 75% 4.3 mph SE6.9 kmh SE 5.8 mph9.3 kmh 30.09 in1019.0 mb 0.00 in0.0 mm 0.00 in0.0 mm 0.00 in0.0 mm
09:14 AM 71.6°F22.0°C 63.3°F17.4°C 75% 3.1 mph SE5.0 kmh SE 4.5 mph7.2 kmh 30.08 in1018.6 mb 0.00 in0.0 mm 0.00 in0.0 mm 0.00 in0.0 mm
09:19 AM 71.8°F22.1°C 62.6°F17.0°C 73% 3.6 mph SE5.8 kmh SE 4.5 mph7.2 kmh 30.08 in1018.6 mb 0.00 in0.0 mm 0.00 in0.0 mm 0.00 in0.0 mm
09:24 AM 72.0°F22.2°C 62.8°F17.1°C 73% 3.8 mph SE6.1 kmh SE 5.8 mph9.3 kmh 30.09 in1019.0 mb 0.00 in0.0 mm 0.00 in0.0 mm 0.00 in0.0 mm
09:29 AM 72.0°F22.2°C 62.1°F16.7°C 71% 3.4 mph SSE5.5 kmh SSE 5.8 mph9.3 kmh 30.09 in1019.0 mb 0.00 in0.0 mm 0.00 in0.0 mm 0.00 in0.0 mm
09:34 AM 71.6°F22.0°C 61.7°F16.5°C 71% 3.6 mph SE5.8 kmh SE 4.5 mph7.2 kmh 30.08 in1018.6 mb 0.00 in0.0 mm 0.00 in0.0 mm 0.00 in0.0 mm
09:39 AM 72.1°F22.3°C 62.2°F16.8°C 71% 2.5 mph ESE4.0 kmh ESE 3.4 mph5.5 kmh 30.08 in1018.6 mb 0.00 in0.0 mm 0.00 in0.0 mm 0.00 in0.0 mm
09:44 AM 72.3°F22.4°C 62.1°F16.7°C 70% 3.6 mph S5.8 kmh S 4.5 mph7.2 kmh 30.09 in1019.0 mb 0.00 in0.0 mm 0.00 in0.0 mm 0.00 in0.0 mm
09:49 AM 72.5°F22.5°C 62.2°F16.8°C 70% 1.8 mph E2.9 kmh E 4.5 mph7.2 kmh 30.08 in1018.6 mb 0.00 in0.0 mm 0.00 in0.0 mm 0.00 in0.0 mm
09:54 AM 72.3°F22.4°C 62.4°F16.9°C 71% 1.8 mph S2.9 kmh S 2.2 mph3.5 kmh 30.08 in1018.6 mb 0.00 in0.0 mm 0.00 in0.0 mm 0.00 in0.0 mm
09:59 AM 72.1°F22.3°C 61.9°F16.6°C 70% 2.9 mph E4.7 kmh E 3.4 mph5.5 kmh 30.09 in1019.0 mb 0.00 in0.0 mm 0.00 in0.0 mm 0.00 in0.0 mm
10:04 AM 72.1°F22.3°C 62.2°F16.8°C 71% 4.3 mph SE6.9 kmh SE 8.1 mph13.0 kmh 30.09 in1019.0 mb 0.00 in0.0 mm 0.00 in0.0 mm 0.00 in0.0 mm
10:09 AM 73.2°F22.9°C 63.0°F17.2°C 70% 4.5 mph E7.2 kmh E 5.8 mph9.3 kmh 30.08 in1018.6 mb 0.00 in0.0 mm 0.00 in0.0 mm 0.00 in0.0 mm
10:14 AM 73.4°F23.0°C 61.9°F16.6°C 67% 3.8 mph SE6.1 kmh SE 5.8 mph9.3 kmh 30.08 in1018.6 mb 0.00 in0.0 mm 0.00 in0.0 mm 0.00 in0.0 mm
10:19 AM 74.5°F23.6°C 62.8°F17.1°C 67% 4.5 mph SE7.2 kmh SE 5.8 mph9.3 kmh 30.09 in1019.0 mb 0.00 in0.0 mm 0.00 in0.0 mm 0.00 in0.0 mm
10:24 AM 74.5°F23.6°C 62.4°F16.9°C 66% 3.6 mph SSE5.8 kmh SSE 5.8 mph9.3 kmh 30.08 in1018.6 mb 0.00 in0.0 mm 0.00 in0.0 mm 0.00 in0.0 mm
10:29 AM 74.3°F23.5°C 62.6°F17.0°C 67% 3.8 mph SE6.1 kmh SE 4.5 mph7.2 kmh 30.09 in1019.0 mb 0.00 in0.0 mm 0.00 in0.0 mm 0.00 in0.0 mm
10:34 AM 74.1°F23.4°C 62.4°F16.9°C 67% 3.8 mph SSE6.1 kmh SSE 5.8 mph9.3 kmh 30.09 in1019.0 mb 0.00 in0.0 mm 0.00 in0.0 mm 0.00 in0.0 mm
10:39 AM 74.3°F23.5°C 62.6°F17.0°C 67% 5.8 mph ESE9.3 kmh ESE 8.1 mph13.0 kmh 30.09 in1019.0 mb 0.00 in0.0 mm 0.00 in0.0 mm 0.00 in0.0 mm
10:44 AM 73.8°F23.2°C 62.1°F16.7°C 67% 6.0 mph SE9.7 kmh SE 6.9 mph11.1 kmh 30.08 in1018.6 mb 0.00 in0.0 mm 0.00 in0.0 mm 0.00 in0.0 mm
10:49 AM 74.5°F23.6°C 62.4°F16.9°C 66% 3.4 mph SE5.5 kmh SE 5.8 mph9.3 kmh 30.08 in1018.6 mb 0.00 in0.0 mm 0.00 in0.0 mm 0.00 in0.0 mm
10:54 AM 75.2°F24.0°C 63.1°F17.3°C 66% 1.1 mph S1.8 kmh S 2.2 mph3.5 kmh 30.08 in1018.6 mb 0.00 in0.0 mm 0.00 in0.0 mm 0.00 in0.0 mm
10:59 AM 75.6°F24.2°C 62.1°F16.7°C 63% 2.2 mph SE3.5 kmh SE 3.4 mph5.5 kmh 30.09 in1019.0 mb 0.00 in0.0 mm 0.00 in0.0 mm 0.00 in0.0 mm
11:04 AM 77.2°F25.1°C 61.7°F16.5°C 59% 6.5 mph E10.5 kmh E 9.2 mph14.8 kmh 30.08 in1018.6 mb 0.00 in0.0 mm 0.00 in0.0 mm 0.00 in0.0 mm
11:09 AM 78.1°F25.6°C 63.5°F17.5°C 61% 2.5 mph SE4.0 kmh SE 3.4 mph5.5 kmh 30.08 in1018.6 mb 0.00 in0.0 mm 0.00 in0.0 mm 0.00 in0.0 mm
11:14 AM 76.6°F24.8°C 62.6°F17.0°C 62% 5.8 mph ESE9.3 kmh ESE 8.1 mph13.0 kmh 30.07 in1018.3 mb 0.00 in0.0 mm 0.00 in0.0 mm 0.00 in0.0 mm
11:19 AM 77.7°F25.4°C 62.8°F17.1°C 60% 1.8 mph SE2.9 kmh SE 3.4 mph5.5 kmh 30.08 in1018.6 mb 0.00 in0.0 mm 0.00 in0.0 mm 0.00 in0.0 mm
11:24 AM 80.4°F26.9°C 62.2°F16.8°C 54% 5.4 mph S8.7 kmh S 6.9 mph11.1 kmh 30.08 in1018.6 mb 0.00 in0.0 mm 0.00 in0.0 mm 0.00 in0.0 mm
11:29 AM 80.2°F26.8°C 63.7°F17.6°C 57% 3.8 mph SE6.1 kmh SE 4.5 mph7.2 kmh 30.07 in1018.3 mb 0.00 in0.0 mm 0.00 in0.0 mm 0.00 in0.0 mm
11:34 AM 78.3°F25.7°C 62.2°F16.8°C 58% 7.2 mph SE11.6 kmh SE 9.2 mph14.8 kmh 30.07 in1018.3 mb 0.00 in0.0 mm 0.00 in0.0 mm 0.00 in0.0 mm
11:39 AM 78.3°F25.7°C 61.9°F16.6°C 57% 4.9 mph SE7.9 kmh SE 5.8 mph9.3 kmh 30.07 in1018.3 mb 0.00 in0.0 mm 0.00 in0.0 mm 0.00 in0.0 mm
11:44 AM 79.3°F26.3°C 61.9°F16.6°C 55% 4.3 mph SE6.9 kmh SE 5.8 mph9.3 kmh 30.07 in1018.3 mb 0.00 in0.0 mm 0.00 in0.0 mm 0.00 in0.0 mm
11:49 AM 80.6°F27.0°C 63.0°F17.2°C 55% 3.6 mph N5.8 kmh N 5.8 mph9.3 kmh 30.07 in1018.3 mb 0.00 in0.0 mm 0.00 in0.0 mm 0.00 in0.0 mm
11:54 AM 81.7°F27.6°C 63.0°F17.2°C 53% 6.0 mph S9.7 kmh S 8.1 mph13.0 kmh 30.07 in1018.3 mb 0.00 in0.0 mm 0.00 in0.0 mm 0.00 in0.0 mm
11:59 AM 80.2°F26.8°C 62.1°F16.7°C 54% 6.0 mph SE9.7 kmh SE 8.1 mph13.0 kmh 30.07 in1018.3 mb 0.00 in0.0 mm 0.00 in0.0 mm 0.00 in0.0 mm
12:04 PM 81.0°F27.2°C 61.7°F16.5°C 52% 4.3 mph SE6.9 kmh SE 5.8 mph9.3 kmh 30.07 in1018.3 mb 0.00 in0.0 mm 0.00 in0.0 mm 0.00 in0.0 mm
12:09 PM 80.6°F27.0°C 61.9°F16.6°C 53% 4.5 mph ESE7.2 kmh ESE 10.3 mph16.6 kmh 30.06 in1017.9 mb 0.00 in0.0 mm 0.00 in0.0 mm 0.00 in0.0 mm
12:14 PM 80.6°F27.0°C 62.4°F16.9°C 54% 1.1 mph SSE1.8 kmh SSE 1.1 mph1.8 kmh 30.06 in1017.9 mb 0.00 in0.0 mm 0.00 in0.0 mm 0.00 in0.0 mm
12:19 PM 81.9°F27.7°C 62.6°F17.0°C 52% 7.2 mph ESE11.6 kmh ESE 9.2 mph14.8 kmh 30.06 in1017.9 mb 0.00 in0.0 mm 0.00 in0.0 mm 0.00 in0.0 mm
12:24 PM 81.1°F27.3°C 61.9°F16.6°C 52% 4.5 mph SE7.2 kmh SE 5.8 mph9.3 kmh 30.05 in1017.6 mb 0.00 in0.0 mm 0.00 in0.0 mm 0.00 in0.0 mm
12:29 PM 80.8°F27.1°C 61.0°F16.1°C 51% 2.9 mph SE4.7 kmh SE 4.5 mph7.2 kmh 30.05 in1017.6 mb 0.00 in0.0 mm 0.00 in0.0 mm 0.00 in0.0 mm
12:34 PM 82.2°F27.9°C 61.2°F16.2°C 49% 7.4 mph ESE11.9 kmh ESE 10.3 mph16.6 kmh 30.05 in1017.6 mb 0.00 in0.0 mm 0.00 in0.0 mm 0.00 in0.0 mm
12:39 PM 82.2°F27.9°C 61.7°F16.5°C 50% 0.7 mph SE1.1 kmh SE 1.1 mph1.8 kmh 30.05 in1017.6 mb 0.00 in0.0 mm 0.00 in0.0 mm 0.00 in0.0 mm
12:44 PM 83.7°F28.7°C 62.6°F17.0°C 49% 2.5 mph E4.0 kmh E 3.4 mph5.5 kmh 30.04 in1017.3 mb 0.00 in0.0 mm 0.00 in0.0 mm 0.00 in0.0 mm
12:49 PM 83.1°F28.4°C 62.1°F16.7°C 49% 5.4 mph E8.7 kmh E 6.9 mph11.1 kmh 30.04 in1017.3 mb 0.00 in0.0 mm 0.00 in0.0 mm 0.00 in0.0 mm
12:54 PM 83.8°F28.8°C 62.8°F17.1°C 49% 5.8 mph SE9.3 kmh SE 9.2 mph14.8 kmh 30.04 in1017.3 mb 0.00 in0.0 mm 0.00 in0.0 mm 0.00 in0.0 mm
12:59 PM 83.7°F28.7°C 61.3°F16.3°C 47% 3.4 mph SE5.5 kmh SE 4.5 mph7.2 kmh 30.04 in1017.3 mb 0.00 in0.0 mm 0.00 in0.0 mm 0.00 in0.0 mm
01:04 PM 81.9°F27.7°C 61.5°F16.4°C 50% 3.4 mph SSE5.5 kmh SSE 4.5 mph7.2 kmh 30.04 in1017.3 mb 0.00 in0.0 mm 0.00 in0.0 mm 0.00 in0.0 mm
01:09 PM 81.0°F27.2°C 61.2°F16.2°C 51% 3.8 mph E6.1 kmh E 4.5 mph7.2 kmh 30.04 in1017.3 mb 0.00 in0.0 mm 0.00 in0.0 mm 0.00 in0.0 mm
01:14 PM 82.9°F28.3°C 61.9°F16.6°C 49% 2.7 mph ESE4.3 kmh ESE 4.5 mph7.2 kmh 30.03 in1016.9 mb 0.00 in0.0 mm 0.00 in0.0 mm 0.00 in0.0 mm
01:19 PM 84.6°F29.2°C 62.1°F16.7°C 47% 4.3 mph SE6.9 kmh SE 5.8 mph9.3 kmh 30.04 in1017.3 mb 0.00 in0.0 mm 0.00 in0.0 mm 0.00 in0.0 mm
01:24 PM 84.9°F29.4°C 61.9°F16.6°C 46% 2.9 mph E4.7 kmh E 3.4 mph5.5 kmh 30.04 in1017.3 mb 0.00 in0.0 mm 0.00 in0.0 mm 0.00 in0.0 mm
01:29 PM 83.8°F28.8°C 61.5°F16.4°C 47% 6.5 mph ESE10.5 kmh ESE 8.1 mph13.0 kmh 30.04 in1017.3 mb 0.00 in0.0 mm 0.00 in0.0 mm 0.00 in0.0 mm
01:34 PM 83.8°F28.8°C 61.5°F16.4°C 47% 4.9 mph SE7.9 kmh SE 5.8 mph9.3 kmh 30.03 in1016.9 mb 0.00 in0.0 mm 0.00 in0.0 mm 0.00 in0.0 mm
01:39 PM 84.4°F29.1°C 62.1°F16.7°C 47% 5.4 mph E8.7 kmh E 6.9 mph11.1 kmh 30.03 in1016.9 mb 0.00 in0.0 mm 0.00 in0.0 mm 0.00 in0.0 mm
01:44 PM 83.5°F28.6°C 62.4°F16.9°C 49% 4.5 mph S7.2 kmh S 6.9 mph11.1 kmh 30.03 in1016.9 mb 0.00 in0.0 mm 0.00 in0.0 mm 0.00 in0.0 mm
01:49 PM 85.1°F29.5°C 62.1°F16.7°C 46% 6.0 mph SE9.7 kmh SE 8.1 mph13.0 kmh 30.03 in1016.9 mb 0.00 in0.0 mm 0.00 in0.0 mm 0.00 in0.0 mm
01:54 PM 83.1°F28.4°C 61.5°F16.4°C 48% 1.6 mph SE2.6 kmh SE 3.4 mph5.5 kmh 30.03 in1016.9 mb 0.00 in0.0 mm 0.00 in0.0 mm 0.00 in0.0 mm
01:59 PM 83.5°F28.6°C 62.4°F16.9°C 49% 4.5 mph E7.2 kmh E 6.9 mph11.1 kmh 30.03 in1016.9 mb 0.00 in0.0 mm 0.00 in0.0 mm 0.00 in0.0 mm
02:04 PM 82.0°F27.8°C 61.5°F16.4°C 50% 7.8 mph SSE12.6 kmh SSE 10.3 mph16.6 kmh 30.02 in1016.6 mb 0.00 in0.0 mm 0.00 in0.0 mm 0.00 in0.0 mm
02:09 PM 83.3°F28.5°C 61.7°F16.5°C 48% 3.8 mph SSE6.1 kmh SSE 5.8 mph9.3 kmh 30.02 in1016.6 mb 0.00 in0.0 mm 0.00 in0.0 mm 0.00 in0.0 mm
02:14 PM 85.1°F29.5°C 60.8°F16.0°C 44% 2.2 mph SE3.5 kmh SE 3.4 mph5.5 kmh 30.02 in1016.6 mb 0.00 in0.0 mm 0.00 in0.0 mm 0.00 in0.0 mm
02:19 PM 86.0°F30.0°C 62.2°F16.8°C 45% 5.6 mph ESE9.0 kmh ESE 9.2 mph14.8 kmh 30.02 in1016.6 mb 0.00 in0.0 mm 0.00 in0.0 mm 0.00 in0.0 mm
02:24 PM 84.4°F29.1°C 61.3°F16.3°C 46% 4.0 mph SE6.4 kmh SE 6.9 mph11.1 kmh 30.02 in1016.6 mb 0.00 in0.0 mm 0.00 in0.0 mm 0.00 in0.0 mm
02:29 PM 85.5°F29.7°C 61.2°F16.2°C 44% 3.8 mph SW6.1 kmh SW 4.5 mph7.2 kmh 30.02 in1016.6 mb 0.00 in0.0 mm 0.00 in0.0 mm 0.00 in0.0 mm
02:34 PM 86.9°F30.5°C 61.7°F16.5°C 43% 2.9 mph SSE4.7 kmh SSE 4.5 mph7.2 kmh 30.02 in1016.6 mb 0.00 in0.0 mm 0.00 in0.0 mm 0.00 in0.0 mm
02:39 PM 85.8°F29.9°C 62.8°F17.1°C 46% 7.4 mph E11.9 kmh E 9.2 mph14.8 kmh 30.02 in1016.6 mb 0.00 in0.0 mm 0.00 in0.0 mm 0.00 in0.0 mm
02:44 PM 84.0°F28.9°C 60.4°F15.8°C 45% 0.7 mph SSE1.1 kmh SSE 1.1 mph1.8 kmh 30.02 in1016.6 mb 0.00 in0.0 mm 0.00 in0.0 mm 0.00 in0.0 mm
02:49 PM 84.0°F28.9°C 60.4°F15.8°C 45% 2.5 mph SSW4.0 kmh SSW 4.5 mph7.2 kmh 30.02 in1016.6 mb 0.00 in0.0 mm 0.00 in0.0 mm 0.00 in0.0 mm
02:54 PM 86.0°F30.0°C 61.7°F16.5°C 44% 4.0 mph S6.4 kmh S 5.8 mph9.3 kmh 30.01 in1016.3 mb 0.00 in0.0 mm 0.00 in0.0 mm 0.00 in0.0 mm
02:59 PM 86.0°F30.0°C 61.0°F16.1°C 43% 6.5 mph ESE10.5 kmh ESE 8.1 mph13.0 kmh 30.01 in1016.3 mb 0.00 in0.0 mm 0.00 in0.0 mm 0.00 in0.0 mm
03:04 PM 86.7°F30.4°C 61.0°F16.1°C 42% 4.0 mph E6.4 kmh E 5.8 mph9.3 kmh 30.02 in1016.6 mb 0.00 in0.0 mm 0.00 in0.0 mm 0.00 in0.0 mm
03:09 PM 87.1°F30.6°C 61.3°F16.3°C 42% 5.8 mph SE9.3 kmh SE 8.1 mph13.0 kmh 30.02 in1016.6 mb 0.00 in0.0 mm 0.00 in0.0 mm 0.00 in0.0 mm
03:14 PM 85.3°F29.6°C 61.0°F16.1°C 44% 3.4 mph ESE5.5 kmh ESE 4.5 mph7.2 kmh 30.02 in1016.6 mb 0.00 in0.0 mm 0.00 in0.0 mm 0.00 in0.0 mm
03:19 PM 84.6°F29.2°C 61.0°F16.1°C 45% 4.5 mph ESE7.2 kmh ESE 6.9 mph11.1 kmh 30.02 in1016.6 mb 0.00 in0.0 mm 0.00 in0.0 mm 0.00 in0.0 mm
03:24 PM 83.5°F28.6°C 59.4°F15.2°C 44% 4.7 mph ESE7.6 kmh ESE 5.8 mph9.3 kmh 30.02 in1016.6 mb 0.00 in0.0 mm 0.00 in0.0 mm 0.00 in0.0 mm
03:29 PM 84.4°F29.1°C 60.1°F15.6°C 44% 1.3 mph SE2.1 kmh SE 2.2 mph3.5 kmh 30.01 in1016.3 mb 0.00 in0.0 mm 0.00 in0.0 mm 0.00 in0.0 mm
03:34 PM 86.0°F30.0°C 59.7°F15.4°C 41% 2.9 mph SE4.7 kmh SE 5.8 mph9.3 kmh 30.01 in1016.3 mb 0.00 in0.0 mm 0.00 in0.0 mm 0.00 in0.0 mm
03:39 PM 86.5°F30.3°C 61.5°F16.4°C 43% 1.8 mph SSW2.9 kmh SSW 3.4 mph5.5 kmh 30.01 in1016.3 mb 0.00 in0.0 mm 0.00 in0.0 mm 0.00 in0.0 mm
03:44 PM 86.9°F30.5°C 61.7°F16.5°C 43% 5.4 mph NNW8.7 kmh NNW 6.9 mph11.1 kmh 30.00 in1015.9 mb 0.00 in0.0 mm 0.00 in0.0 mm 0.00 in0.0 mm
03:49 PM 87.3°F30.7°C 60.8°F16.0°C 41% 0.7 mph SSE1.1 kmh SSE 2.2 mph3.5 kmh 30.01 in1016.3 mb 0.00 in0.0 mm 0.00 in0.0 mm 0.00 in0.0 mm
03:54 PM 88.0°F31.1°C 62.1°F16.7°C 42% 1.1 mph SSE1.8 kmh SSE 2.2 mph3.5 kmh 30.01 in1016.3 mb 0.00 in0.0 mm 0.00 in0.0 mm 0.00 in0.0 mm
03:59 PM 88.0°F31.1°C 60.6°F15.9°C 40% 4.0 mph ESE6.4 kmh ESE 8.1 mph13.0 kmh 30.01 in1016.3 mb 0.00 in0.0 mm 0.00 in0.0 mm 0.00 in0.0 mm
04:04 PM 87.6°F30.9°C 60.4°F15.8°C 40% 2.2 mph S3.5 kmh S 3.4 mph5.5 kmh 30.00 in1015.9 mb 0.00 in0.0 mm 0.00 in0.0 mm 0.00 in0.0 mm
04:09 PM 87.8°F31.0°C 59.9°F15.5°C 39% 4.9 mph SE7.9 kmh SE 6.9 mph11.1 kmh 30.01 in1016.3 mb 0.00 in0.0 mm 0.00 in0.0 mm 0.00 in0.0 mm
04:14 PM 87.4°F30.8°C 61.0°F16.1°C 41% 1.8 mph ESE2.9 kmh ESE 2.2 mph3.5 kmh 30.00 in1015.9 mb 0.00 in0.0 mm 0.00 in0.0 mm 0.00 in0.0 mm
04:19 PM 87.4°F30.8°C 60.3°F15.7°C 40% 2.9 mph ESE4.7 kmh ESE 4.5 mph7.2 kmh 30.00 in1015.9 mb 0.00 in0.0 mm 0.00 in0.0 mm 0.00 in0.0 mm
04:24 PM 87.6°F30.9°C 60.4°F15.8°C 40% 4.0 mph SSE6.4 kmh SSE 5.8 mph9.3 kmh 30.00 in1015.9 mb 0.00 in0.0 mm 0.00 in0.0 mm 0.00 in0.0 mm
04:29 PM 86.7°F30.4°C 60.3°F15.7°C 41% 3.4 mph SE5.5 kmh SE 4.5 mph7.2 kmh 30.00 in1015.9 mb 0.00 in0.0 mm 0.00 in0.0 mm 0.00 in0.0 mm
04:34 PM 84.0°F28.9°C 60.4°F15.8°C 45% 1.8 mph SSE2.9 kmh SSE 5.8 mph9.3 kmh 30.00 in1015.9 mb 0.00 in0.0 mm 0.00 in0.0 mm 0.00 in0.0 mm
04:39 PM 83.8°F28.8°C 60.3°F15.7°C 45% 3.4 mph E5.5 kmh E 5.8 mph9.3 kmh 30.00 in1015.9 mb 0.00 in0.0 mm 0.00 in0.0 mm 0.00 in0.0 mm
04:44 PM 84.0°F28.9°C 61.2°F16.2°C 46% 0.2 mph S0.3 kmh S 1.1 mph1.8 kmh 30.00 in1015.9 mb 0.00 in0.0 mm 0.00 in0.0 mm 0.00 in0.0 mm
04:49 PM 84.4°F29.1°C 61.3°F16.3°C 46% 0.7 mph SW1.1 kmh SW 1.1 mph1.8 kmh 30.01 in1016.3 mb 0.00 in0.0 mm 0.00 in0.0 mm 0.00 in0.0 mm
04:54 PM 84.0°F28.9°C 61.2°F16.2°C 46% 2.0 mph SW3.2 kmh SW 2.2 mph3.5 kmh 30.00 in1015.9 mb 0.00 in0.0 mm 0.00 in0.0 mm 0.00 in0.0 mm
04:59 PM 84.2°F29.0°C 61.9°F16.6°C 47% 2.7 mph NW4.3 kmh NW 4.5 mph7.2 kmh 30.00 in1015.9 mb 0.00 in0.0 mm 0.00 in0.0 mm 0.00 in0.0 mm
05:04 PM 84.2°F29.0°C 60.6°F15.9°C 45% 1.3 mph SE2.1 kmh SE 3.4 mph5.5 kmh 30.00 in1015.9 mb 0.00 in0.0 mm 0.00 in0.0 mm 0.00 in0.0 mm
05:09 PM 83.7°F28.7°C 60.8°F16.0°C 46% 2.0 mph SSW3.2 kmh SSW 2.2 mph3.5 kmh 30.01 in1016.3 mb 0.00 in0.0 mm 0.00 in0.0 mm 0.00 in0.0 mm
05:14 PM 82.4°F28.0°C 60.3°F15.7°C 47% 2.5 mph SE4.0 kmh SE 4.5 mph7.2 kmh 30.00 in1015.9 mb 0.00 in0.0 mm 0.00 in0.0 mm 0.00 in0.0 mm
05:18 PM 82.6°F28.1°C 60.3°F15.7°C 47% 1.6 mph SSE2.6 kmh SSE 3.4 mph5.5 kmh 30.00 in1015.9 mb 0.00 in0.0 mm 0.00 in0.0 mm 0.00 in0.0 mm
05:24 PM 82.4°F28.0°C 60.3°F15.7°C 47% 2.7 mph S4.3 kmh S 3.4 mph5.5 kmh 30.00 in1015.9 mb 0.00 in0.0 mm 0.00 in0.0 mm 0.00 in0.0 mm
05:29 PM 82.4°F28.0°C 60.8°F16.0°C 48% 0.9 mph SSW1.4 kmh SSW 1.1 mph1.8 kmh 30.01 in1016.3 mb 0.00 in0.0 mm 0.00 in0.0 mm 0.00 in0.0 mm
05:34 PM 82.2°F27.9°C 61.2°F16.2°C 49% 1.1 mph S1.8 kmh S 2.2 mph3.5 kmh 30.00 in1015.9 mb 0.00 in0.0 mm 0.00 in0.0 mm 0.00 in0.0 mm
05:39 PM 82.0°F27.8°C 59.9°F15.5°C 47% 4.0 mph SSE6.4 kmh SSE 4.5 mph7.2 kmh 29.99 in1015.6 mb 0.00 in0.0 mm 0.00 in0.0 mm 0.00 in0.0 mm
05:44 PM 82.0°F27.8°C 59.9°F15.5°C 47% 2.9 mph SE4.7 kmh SE 4.5 mph7.2 kmh 30.00 in1015.9 mb 0.00 in0.0 mm 0.00 in0.0 mm 0.00 in0.0 mm
05:49 PM 82.4°F28.0°C 60.8°F16.0°C 48% 1.8 mph WSW2.9 kmh WSW 3.4 mph5.5 kmh 29.99 in1015.6 mb 0.00 in0.0 mm 0.00 in0.0 mm 0.00 in0.0 mm
05:54 PM 82.9°F28.3°C 60.6°F15.9°C 47% 2.9 mph S4.7 kmh S 4.5 mph7.2 kmh 29.99 in1015.6 mb 0.00 in0.0 mm 0.00 in0.0 mm 0.00 in0.0 mm
05:59 PM 83.7°F28.7°C 60.1°F15.6°C 45% 1.6 mph SSE2.6 kmh SSE 2.2 mph3.5 kmh 29.99 in1015.6 mb 0.00 in0.0 mm 0.00 in0.0 mm 0.00 in0.0 mm
06:04 PM 83.8°F28.8°C 60.3°F15.7°C 45% 5.8 mph SE9.3 kmh SE 8.1 mph13.0 kmh 29.99 in1015.6 mb 0.00 in0.0 mm 0.00 in0.0 mm 0.00 in0.0 mm
06:09 PM 84.0°F28.9°C 59.9°F15.5°C 44% 2.2 mph E3.5 kmh E 3.4 mph5.5 kmh 30.00 in1015.9 mb 0.00 in0.0 mm 0.00 in0.0 mm 0.00 in0.0 mm
06:14 PM 83.7°F28.7°C 60.8°F16.0°C 46% 7.6 mph E12.2 kmh E 10.3 mph16.6 kmh 29.99 in1015.6 mb 0.00 in0.0 mm 0.00 in0.0 mm 0.00 in0.0 mm
06:19 PM 82.9°F28.3°C 60.1°F15.6°C 46% 5.8 mph SSE9.3 kmh SSE 8.1 mph13.0 kmh 29.99 in1015.6 mb 0.00 in0.0 mm 0.00 in0.0 mm 0.00 in0.0 mm
06:24 PM 82.0°F27.8°C 59.9°F15.5°C 47% 10.3 mph E16.6 kmh E 12.5 mph20.1 kmh 30.00 in1015.9 mb 0.00 in0.0 mm 0.00 in0.0 mm 0.00 in0.0 mm
06:29 PM 81.1°F27.3°C 59.7°F15.4°C 48% 5.1 mph S8.2 kmh S 6.9 mph11.1 kmh 30.00 in1015.9 mb 0.00 in0.0 mm 0.00 in0.0 mm 0.00 in0.0 mm
06:34 PM 80.8°F27.1°C 59.4°F15.2°C 48% 5.8 mph E9.3 kmh E 10.3 mph16.6 kmh 30.00 in1015.9 mb 0.00 in0.0 mm 0.00 in0.0 mm 0.00 in0.0 mm
06:39 PM 80.8°F27.1°C 59.9°F15.5°C 49% 2.9 mph SE4.7 kmh SE 4.5 mph7.2 kmh 30.00 in1015.9 mb 0.00 in0.0 mm 0.00 in0.0 mm 0.00 in0.0 mm
06:44 PM 81.0°F27.2°C 60.1°F15.6°C 49% 4.5 mph ESE7.2 kmh ESE 6.9 mph11.1 kmh 30.00 in1015.9 mb 0.00 in0.0 mm 0.00 in0.0 mm 0.00 in0.0 mm
06:49 PM 80.6°F27.0°C 59.7°F15.4°C 49% 7.8 mph E12.6 kmh E 10.3 mph16.6 kmh 29.99 in1015.6 mb 0.00 in0.0 mm 0.00 in0.0 mm 0.00 in0.0 mm
06:54 PM 80.4°F26.9°C 60.1°F15.6°C 50% 8.9 mph SE14.3 kmh SE 10.3 mph16.6 kmh 30.00 in1015.9 mb 0.00 in0.0 mm 0.00 in0.0 mm 0.00 in0.0 mm
06:59 PM 80.2°F26.8°C 60.6°F15.9°C 51% 5.8 mph ESE9.3 kmh ESE 8.1 mph13.0 kmh 29.99 in1015.6 mb 0.00 in0.0 mm 0.00 in0.0 mm 0.00 in0.0 mm
07:04 PM 80.1°F26.7°C 60.4°F15.8°C 51% 6.5 mph SE10.5 kmh SE 8.1 mph13.0 kmh 30.00 in1015.9 mb 0.00 in0.0 mm 0.00 in0.0 mm 0.00 in0.0 mm
07:09 PM 79.9°F26.6°C 60.3°F15.7°C 51% 3.8 mph ESE6.1 kmh ESE 5.8 mph9.3 kmh 30.01 in1016.3 mb 0.00 in0.0 mm 0.00 in0.0 mm 0.00 in0.0 mm
07:14 PM 79.7°F26.5°C 60.6°F15.9°C 52% 2.5 mph ESE4.0 kmh ESE 3.4 mph5.5 kmh 30.01 in1016.3 mb 0.00 in0.0 mm 0.00 in0.0 mm 0.00 in0.0 mm
07:19 PM 79.2°F26.2°C 60.1°F15.6°C 52% 8.1 mph ESE13.0 kmh ESE 12.5 mph20.1 kmh 30.01 in1016.3 mb 0.00 in0.0 mm 0.00 in0.0 mm 0.00 in0.0 mm
07:24 PM 78.8°F26.0°C 60.3°F15.7°C 53% 3.4 mph SE5.5 kmh SE 5.8 mph9.3 kmh 30.01 in1016.3 mb 0.00 in0.0 mm 0.00 in0.0 mm 0.00 in0.0 mm
07:29 PM 78.3°F25.7°C 59.7°F15.4°C 53% 5.6 mph S9.0 kmh S 10.3 mph16.6 kmh 30.02 in1016.6 mb 0.00 in0.0 mm 0.00 in0.0 mm 0.00 in0.0 mm
07:34 PM 77.9°F25.5°C 59.9°F15.5°C 54% 5.8 mph SE9.3 kmh SE 6.9 mph11.1 kmh 30.02 in1016.6 mb 0.00 in0.0 mm 0.00 in0.0 mm 0.00 in0.0 mm
07:39 PM 77.7°F25.4°C 60.3°F15.7°C 55% 4.9 mph SE7.9 kmh SE 6.9 mph11.1 kmh 30.02 in1016.6 mb 0.00 in0.0 mm 0.00 in0.0 mm 0.00 in0.0 mm
07:44 PM 77.5°F25.3°C 60.6°F15.9°C 56% 1.8 mph SW2.9 kmh SW 3.4 mph5.5 kmh 30.02 in1016.6 mb 0.00 in0.0 mm 0.00 in0.0 mm 0.00 in0.0 mm
07:49 PM 77.2°F25.1°C 60.3°F15.7°C 56% 3.4 mph S5.5 kmh S 5.8 mph9.3 kmh 30.02 in1016.6 mb 0.00 in0.0 mm 0.00 in0.0 mm 0.00 in0.0 mm
07:54 PM 77.0°F25.0°C 60.1°F15.6°C 56% 8.1 mph SE13.0 kmh SE 11.4 mph18.3 kmh 30.02 in1016.6 mb 0.00 in0.0 mm 0.00 in0.0 mm 0.00 in0.0 mm
07:59 PM 76.8°F24.9°C 59.9°F15.5°C 56% 4.0 mph SE6.4 kmh SE 5.8 mph9.3 kmh 30.02 in1016.6 mb 0.00 in0.0 mm 0.00 in0.0 mm 0.00 in0.0 mm
08:04 PM 76.5°F24.7°C 60.1°F15.6°C 57% 6.3 mph E10.1 kmh E 8.1 mph13.0 kmh 30.02 in1016.6 mb 0.00 in0.0 mm 0.00 in0.0 mm 0.00 in0.0 mm
08:09 PM 76.1°F24.5°C 60.3°F15.7°C 58% 5.6 mph SE9.0 kmh SE 9.2 mph14.8 kmh 30.02 in1016.6 mb 0.00 in0.0 mm 0.00 in0.0 mm 0.00 in0.0 mm
08:14 PM 75.7°F24.3°C 59.9°F15.5°C 58% 3.1 mph E5.0 kmh E 6.9 mph11.1 kmh 30.02 in1016.6 mb 0.00 in0.0 mm 0.00 in0.0 mm 0.00 in0.0 mm
08:19 PM 75.4°F24.1°C 60.1°F15.6°C 59% 5.1 mph ESE8.2 kmh ESE 6.9 mph11.1 kmh 30.02 in1016.6 mb 0.00 in0.0 mm 0.00 in0.0 mm 0.00 in0.0 mm
08:24 PM 75.0°F23.9°C 60.3°F15.7°C 60% 1.3 mph SE2.1 kmh SE 2.2 mph3.5 kmh 30.02 in1016.6 mb 0.00 in0.0 mm 0.00 in0.0 mm 0.00 in0.0 mm
08:29 PM 74.7°F23.7°C 59.9°F15.5°C 60% 2.5 mph ESE4.0 kmh ESE 4.5 mph7.2 kmh 30.03 in1016.9 mb 0.00 in0.0 mm 0.00 in0.0 mm 0.00 in0.0 mm
08:34 PM 74.3°F23.5°C 60.1°F15.6°C 61% 6.0 mph SSE9.7 kmh SSE 8.1 mph13.0 kmh 30.03 in1016.9 mb 0.00 in0.0 mm 0.00 in0.0 mm 0.00 in0.0 mm
08:39 PM 74.3°F23.5°C 60.1°F15.6°C 61% 4.0 mph SE6.4 kmh SE 5.8 mph9.3 kmh 30.03 in1016.9 mb 0.00 in0.0 mm 0.00 in0.0 mm 0.00 in0.0 mm
08:44 PM 73.9°F23.3°C 60.1°F15.6°C 62% 6.5 mph S10.5 kmh S 10.3 mph16.6 kmh 30.03 in1016.9 mb 0.00 in0.0 mm 0.00 in0.0 mm 0.00 in0.0 mm
08:49 PM 73.8°F23.2°C 59.9°F15.5°C 62% 4.5 mph SE7.2 kmh SE 6.9 mph11.1 kmh 30.03 in1016.9 mb 0.00 in0.0 mm 0.00 in0.0 mm 0.00 in0.0 mm
08:54 PM 73.6°F23.1°C 59.7°F15.4°C 62% 3.1 mph E5.0 kmh E 4.5 mph7.2 kmh 30.03 in1016.9 mb 0.00 in0.0 mm 0.00 in0.0 mm 0.00 in0.0 mm
08:59 PM 73.4°F23.0°C 59.5°F15.3°C 62% 3.1 mph SE5.0 kmh SE 4.5 mph7.2 kmh 30.03 in1016.9 mb 0.00 in0.0 mm 0.00 in0.0 mm 0.00 in0.0 mm
09:04 PM 73.4°F23.0°C 59.5°F15.3°C 62% 2.5 mph NE4.0 kmh NE 3.4 mph5.5 kmh 30.03 in1016.9 mb 0.00 in0.0 mm 0.00 in0.0 mm 0.00 in0.0 mm
09:09 PM 73.2°F22.9°C 59.4°F15.2°C 62% 4.5 mph ESE7.2 kmh ESE 6.9 mph11.1 kmh 30.04 in1017.3 mb 0.00 in0.0 mm 0.00 in0.0 mm 0.00 in0.0 mm
09:14 PM 73.2°F22.9°C 59.4°F15.2°C 62% 3.4 mph E5.5 kmh E 4.5 mph7.2 kmh 30.03 in1016.9 mb 0.00 in0.0 mm 0.00 in0.0 mm 0.00 in0.0 mm
09:19 PM 72.9°F22.7°C 59.5°F15.3°C 63% 4.3 mph SSE6.9 kmh SSE 5.8 mph9.3 kmh 30.04 in1017.3 mb 0.00 in0.0 mm 0.00 in0.0 mm 0.00 in0.0 mm
09:24 PM 72.7°F22.6°C 59.4°F15.2°C 63% 2.5 mph SSE4.0 kmh SSE 4.5 mph7.2 kmh 30.05 in1017.6 mb 0.00 in0.0 mm 0.00 in0.0 mm 0.00 in0.0 mm
09:29 PM 72.5°F22.5°C 59.7°F15.4°C 64% 5.4 mph SSE8.7 kmh SSE 6.9 mph11.1 kmh 30.05 in1017.6 mb 0.00 in0.0 mm 0.00 in0.0 mm 0.00 in0.0 mm
09:34 PM 72.1°F22.3°C 59.4°F15.2°C 64% 2.5 mph SSE4.0 kmh SSE 3.4 mph5.5 kmh 30.05 in1017.6 mb 0.00 in0.0 mm 0.00 in0.0 mm 0.00 in0.0 mm
09:39 PM 71.8°F22.1°C 59.4°F15.2°C 65% 2.5 mph NE4.0 kmh NE 3.4 mph5.5 kmh 30.05 in1017.6 mb 0.00 in0.0 mm 0.00 in0.0 mm 0.00 in0.0 mm
09:44 PM 71.8°F22.1°C 59.4°F15.2°C 65% 2.5 mph S4.0 kmh S 3.4 mph5.5 kmh 30.05 in1017.6 mb 0.00 in0.0 mm 0.00 in0.0 mm 0.00 in0.0 mm
09:49 PM 71.6°F22.0°C 59.7°F15.4°C 66% 2.5 mph SSE4.0 kmh SSE 3.4 mph5.5 kmh 30.05 in1017.6 mb 0.00 in0.0 mm 0.00 in0.0 mm 0.00 in0.0 mm
09:54 PM 71.2°F21.8°C 59.4°F15.2°C 66% 4.0 mph SE6.4 kmh SE 8.1 mph13.0 kmh 30.05 in1017.6 mb 0.00 in0.0 mm 0.00 in0.0 mm 0.00 in0.0 mm
09:59 PM 71.1°F21.7°C 59.5°F15.3°C 67% 4.0 mph E6.4 kmh E 6.9 mph11.1 kmh 30.05 in1017.6 mb 0.00 in0.0 mm 0.00 in0.0 mm 0.00 in0.0 mm
10:04 PM 70.7°F21.5°C 59.2°F15.1°C 67% 6.0 mph E9.7 kmh E 6.9 mph11.1 kmh 30.06 in1017.9 mb 0.00 in0.0 mm 0.00 in0.0 mm 0.00 in0.0 mm
10:09 PM 70.7°F21.5°C 59.7°F15.4°C 68% 5.4 mph SE8.7 kmh SE 8.1 mph13.0 kmh 30.05 in1017.6 mb 0.00 in0.0 mm 0.00 in0.0 mm 0.00 in0.0 mm
10:14 PM 70.2°F21.2°C 59.5°F15.3°C 69% 4.0 mph S6.4 kmh S 5.8 mph9.3 kmh 30.07 in1018.3 mb 0.00 in0.0 mm 0.00 in0.0 mm 0.00 in0.0 mm
10:19 PM 70.2°F21.2°C 59.5°F15.3°C 69% 4.0 mph ESE6.4 kmh ESE 5.8 mph9.3 kmh 30.06 in1017.9 mb 0.00 in0.0 mm 0.00 in0.0 mm 0.00 in0.0 mm
10:24 PM 70.0°F21.1°C 59.0°F15.0°C 68% 3.8 mph SE6.1 kmh SE 5.8 mph9.3 kmh 30.06 in1017.9 mb 0.00 in0.0 mm 0.00 in0.0 mm 0.00 in0.0 mm
10:29 PM 70.0°F21.1°C 59.4°F15.2°C 69% 4.7 mph S7.6 kmh S 6.9 mph11.1 kmh 30.07 in1018.3 mb 0.00 in0.0 mm 0.00 in0.0 mm 0.00 in0.0 mm
10:34 PM 69.8°F21.0°C 59.2°F15.1°C 69% 3.1 mph ESE5.0 kmh ESE 3.4 mph5.5 kmh 30.06 in1017.9 mb 0.00 in0.0 mm 0.00 in0.0 mm 0.00 in0.0 mm
10:39 PM 69.6°F20.9°C 59.0°F15.0°C 69% 6.0 mph E9.7 kmh E 8.1 mph13.0 kmh 30.07 in1018.3 mb 0.00 in0.0 mm 0.00 in0.0 mm 0.00 in0.0 mm
10:44 PM 69.4°F20.8°C 59.4°F15.2°C 70% 3.8 mph SE6.1 kmh SE 4.5 mph7.2 kmh 30.06 in1017.9 mb 0.00 in0.0 mm 0.00 in0.0 mm 0.00 in0.0 mm
10:49 PM 69.3°F20.7°C 59.2°F15.1°C 70% 3.1 mph ESE5.0 kmh ESE 5.8 mph9.3 kmh 30.06 in1017.9 mb 0.00 in0.0 mm 0.00 in0.0 mm 0.00 in0.0 mm
10:54 PM 69.3°F20.7°C 59.2°F15.1°C 70% 4.0 mph SE6.4 kmh SE 4.5 mph7.2 kmh 30.06 in1017.9 mb 0.00 in0.0 mm 0.00 in0.0 mm 0.00 in0.0 mm
10:59 PM 69.1°F20.6°C 59.4°F15.2°C 71% 6.0 mph ESE9.7 kmh ESE 8.1 mph13.0 kmh 30.06 in1017.9 mb 0.00 in0.0 mm 0.00 in0.0 mm 0.00 in0.0 mm
11:04 PM 68.9°F20.5°C 59.2°F15.1°C 71% 5.4 mph SE8.7 kmh SE 5.8 mph9.3 kmh 30.06 in1017.9 mb 0.00 in0.0 mm 0.00 in0.0 mm 0.00 in0.0 mm
11:09 PM 68.7°F20.4°C 59.0°F15.0°C 71% 5.4 mph SE8.7 kmh SE 6.9 mph11.1 kmh 30.06 in1017.9 mb 0.00 in0.0 mm 0.00 in0.0 mm 0.00 in0.0 mm
11:14 PM 68.5°F20.3°C 59.2°F15.1°C 72% 5.6 mph SE9.0 kmh SE 8.1 mph13.0 kmh 30.07 in1018.3 mb 0.00 in0.0 mm 0.00 in0.0 mm 0.00 in0.0 mm
11:19 PM 68.5°F20.3°C 59.2°F15.1°C 72% 2.9 mph SE4.7 kmh SE 4.5 mph7.2 kmh 30.07 in1018.3 mb 0.00 in0.0 mm 0.00 in0.0 mm 0.00 in0.0 mm
11:24 PM 68.5°F20.3°C 59.2°F15.1°C 72% 2.0 mph S3.2 kmh S 3.4 mph5.5 kmh 30.07 in1018.3 mb 0.00 in0.0 mm 0.00 in0.0 mm 0.00 in0.0 mm
11:29 PM 68.4°F20.2°C 59.0°F15.0°C 72% 7.2 mph SE11.6 kmh SE 9.2 mph14.8 kmh 30.07 in1018.3 mb 0.00 in0.0 mm 0.00 in0.0 mm 0.00 in0.0 mm
11:34 PM 68.2°F20.1°C 59.2°F15.1°C 73% 2.0 mph SE3.2 kmh SE 5.8 mph9.3 kmh 30.06 in1017.9 mb 0.00 in0.0 mm 0.00 in0.0 mm 0.00 in0.0 mm
11:39 PM 67.6°F19.8°C 59.2°F15.1°C 74% 3.4 mph SE5.5 kmh SE 5.8 mph9.3 kmh 30.07 in1018.3 mb 0.00 in0.0 mm 0.00 in0.0 mm 0.00 in0.0 mm
11:44 PM 67.5°F19.7°C 59.0°F15.0°C 74% 2.2 mph SE3.5 kmh SE 4.5 mph7.2 kmh 30.06 in1017.9 mb 0.00 in0.0 mm 0.00 in0.0 mm 0.00 in0.0 mm
11:49 PM 67.3°F19.6°C 58.8°F14.9°C 74% 2.9 mph SSW4.7 kmh SSW 4.5 mph7.2 kmh 30.06 in1017.9 mb 0.00 in0.0 mm 0.00 in0.0 mm 0.00 in0.0 mm
11:54 PM 67.3°F19.6°C 59.2°F15.1°C 75% 4.5 mph E7.2 kmh E 5.8 mph9.3 kmh 30.06 in1017.9 mb 0.00 in0.0 mm 0.00 in0.0 mm 0.00 in0.0 mm